Time;durP1;ratioP1;P1;durP2;ratioP2;P2;SDS_P1;SDS_P2;PMS_P1;PMS_P2;Temp;Humidity;BMP_temperature;BMP_pressure;BME280_temperature;BME280_humidity;BME280_pressure;Samples;Min_cycle;Max_cycle;Signal;HPM_P1;HPM_P2
2022/11/15 00:01:55;;;;;;;;;;;7.80;90.10;;;;;;5013617;28;20296;-43
2022/11/15 00:04:21;;;;;;;;;;;7.80;90.10;;;;;;5009422;28;19913;-44
2022/11/15 00:06:51;;;;;;;;;;;7.80;89.90;;;;;;4994052;28;19976;-44
2022/11/15 00:09:18;;;;;;;;;;;7.80;89.90;;;;;;4993834;28;19918;-44
2022/11/15 00:11:44;;;;;;;;;;;7.80;89.90;;;;;;5012059;28;19992;-43
2022/11/15 00:14:11;;;;;;;;;;;7.80;89.90;;;;;;5000593;28;20350;-43
2022/11/15 00:16:38;;;;;;;;;;;7.80;89.90;;;;;;4997573;28;20390;-44
2022/11/15 00:19:05;;;;;;;;;;;7.80;89.80;;;;;;4997290;28;19968;-45
2022/11/15 00:21:31;;;;;;;;;;;7.80;89.70;;;;;;5015167;28;19925;-43
2022/11/15 00:23:58;;;;;;;;;;;7.80;89.60;;;;;;5009158;28;19953;-44
2022/11/15 00:26:25;;;;;;;;;;;7.80;89.60;;;;;;5010953;28;20255;-44
2022/11/15 00:28:52;;;;;;;;;;;7.80;89.60;;;;;;5014783;28;19984;-44
2022/11/15 00:31:19;;;;;;;;;;;7.70;89.60;;;;;;5011314;28;19917;-44
2022/11/15 00:33:46;;;;;;;;;;;7.80;89.60;;;;;;5011276;28;19945;-44
2022/11/15 00:36:12;;;;;;;;;;;7.80;89.60;;;;;;4997159;28;19906;-44
2022/11/15 00:38:40;;;;;;;;;;;7.70;89.60;;;;;;5012660;28;19913;-44
2022/11/15 00:41:07;;;;;;;;;;;7.70;89.60;;;;;;5004051;28;19918;-44
2022/11/15 00:43:34;;;;;;;;;;;7.70;89.60;;;;;;4997101;28;19910;-44
2022/11/15 00:46:04;;;;;;;;;;;7.70;89.70;;;;;;5011926;28;19918;-44
2022/11/15 00:48:31;;;;;;;;;;;7.60;89.70;;;;;;4996813;28;19914;-47
2022/11/15 00:50:58;;;;;;;;;;;7.60;89.60;;;;;;5007560;28;20270;-43
2022/11/15 00:53:25;;;;;;;;;;;7.50;89.60;;;;;;5016698;28;19905;-44
2022/11/15 00:55:52;;;;;;;;;;;7.50;89.60;;;;;;5010575;28;20000;-44
2022/11/15 00:58:19;;;;;;;;;;;7.40;89.70;;;;;;4995495;28;20375;-44
2022/11/15 01:00:45;;;;;;;;;;;7.40;89.70;;;;;;5001277;28;19917;-44
2022/11/15 01:03:12;;;;;;;;;;;7.30;89.60;;;;;;4996122;28;20330;-43
2022/11/15 01:05:38;;;;;;;;;;;7.20;89.80;;;;;;4995914;28;19928;-43
2022/11/15 01:08:03;;;;;;;;;;;7.20;89.90;;;;;;4996017;28;19910;-44
2022/11/15 01:10:29;;;;;;;;;;;7.10;89.90;;;;;;5012245;28;19940;-43
2022/11/15 01:12:56;;;;;;;;;;;7.10;89.90;;;;;;5016199;28;20621;-43
2022/11/15 01:15:22;;;;;;;;;;;7.00;89.90;;;;;;5014318;28;19913;-44
2022/11/15 01:17:48;;;;;;;;;;;7.00;90.00;;;;;;5010209;28;20362;-43
2022/11/15 01:20:15;;;;;;;;;;;6.90;90.20;;;;;;5000335;28;20489;-44
2022/11/15 01:22:41;;;;;;;;;;;6.90;90.30;;;;;;5016082;28;20318;-43
2022/11/15 01:25:08;;;;;;;;;;;6.90;90.30;;;;;;5012471;28;20342;-43
2022/11/15 01:27:35;;;;;;;;;;;6.80;90.40;;;;;;5015933;28;19909;-42
2022/11/15 01:30:02;;;;;;;;;;;6.80;90.40;;;;;;5013894;28;19917;-43
2022/11/15 01:32:29;;;;;;;;;;;6.70;90.50;;;;;;5007814;28;19968;-43
2022/11/15 01:34:55;;;;;;;;;;;6.70;90.60;;;;;;4995282;28;20386;-43
2022/11/15 01:37:22;;;;;;;;;;;6.70;90.60;;;;;;4995212;28;19905;-43
2022/11/15 01:39:49;;;;;;;;;;;6.70;90.80;;;;;;4995340;28;20343;-43
2022/11/15 01:42:16;;;;;;;;;;;6.60;90.70;;;;;;5006296;28;19916;-43
2022/11/15 01:44:50;;;;;;;;;;;6.50;90.50;;;;;;4995369;28;19909;-43
2022/11/15 01:47:18;;;;;;;;;;;6.50;90.70;;;;;;4995634;28;19905;-43
2022/11/15 01:50:03;;;;;;;;;;;6.50;90.80;;;;;;4995073;28;19916;-43
2022/11/15 01:52:31;;;;;;;;;;;6.40;90.90;;;;;;5015213;28;19913;-44
2022/11/15 01:55:01;;;;;;;;;;;6.40;91.10;;;;;;5014384;28;19947;-44
2022/11/15 01:57:28;;;;;;;;;;;6.40;91.20;;;;;;5014774;28;19912;-42
2022/11/15 01:59:56;;;;;;;;;;;6.40;91.10;;;;;;5004675;28;19914;-42
2022/11/15 02:02:22;;;;;;;;;;;6.40;91.30;;;;;;5014114;28;19916;-44
2022/11/15 02:04:48;;;;;;;;;;;6.30;91.20;;;;;;5010120;28;19941;-43
2022/11/15 02:07:16;;;;;;;;;;;6.30;91.20;;;;;;4995276;28;19961;-44
2022/11/15 02:09:44;;;;;;;;;;;6.30;91.10;;;;;;4995582;28;20004;-43
2022/11/15 02:12:12;;;;;;;;;;;6.20;91.20;;;;;;5014227;28;20000;-43
2022/11/15 02:14:40;;;;;;;;;;;6.20;91.30;;;;;;5015052;28;20630;-43
2022/11/15 02:17:05;;;;;;;;;;;6.20;91.50;;;;;;5013728;28;19909;-45
2022/11/15 02:19:31;;;;;;;;;;;6.20;91.50;;;;;;4995501;28;20355;-42
2022/11/15 02:22:16;;;;;;;;;;;6.20;91.30;;;;;;5013017;28;19910;-42
2022/11/15 02:24:51;;;;;;;;;;;6.10;91.50;;;;;;5014663;28;19944;-45
2022/11/15 02:27:35;;;;;;;;;;;6.20;91.70;;;;;;5002206;28;19910;-42
2022/11/15 02:30:18;;;;;;;;;;;6.10;91.70;;;;;;4995955;28;19905;-44
2022/11/15 02:32:50;;;;;;;;;;;6.10;91.70;;;;;;5014562;28;19988;-42
2022/11/15 02:35:34;;;;;;;;;;;6.20;91.70;;;;;;5013315;28;20333;-45
2022/11/15 02:38:06;;;;;;;;;;;6.20;91.80;;;;;;4995690;28;19960;-43
2022/11/15 02:40:50;;;;;;;;;;;6.20;91.80;;;;;;4999416;28;20342;-43
2022/11/15 02:46:14;;;;;;;;;;;6.10;91.70;;;;;;4995217;28;19929;-42
2022/11/15 02:48:42;;;;;;;;;;;6.10;91.80;;;;;;4994650;28;19932;-42
2022/11/15 02:51:09;;;;;;;;;;;6.10;91.80;;;;;;5003385;28;19917;-44
2022/11/15 02:53:38;;;;;;;;;;;6.10;91.70;;;;;;5013125;28;20255;-46
2022/11/15 02:56:09;;;;;;;;;;;6.10;91.90;;;;;;5011862;28;19917;-44
2022/11/15 02:58:53;;;;;;;;;;;6.10;91.90;;;;;;5011272;28;19993;-42
2022/11/15 03:01:28;;;;;;;;;;;6.10;92.00;;;;;;5004142;28;19918;-42
2022/11/15 03:04:00;;;;;;;;;;;6.10;91.90;;;;;;5013120;28;19909;-41
2022/11/15 03:06:46;;;;;;;;;;;6.10;92.00;;;;;;5014305;28;19921;-43
2022/11/15 03:09:30;;;;;;;;;;;6.10;92.00;;;;;;4996151;28;19914;-42
2022/11/15 03:12:01;;;;;;;;;;;6.10;92.00;;;;;;5003259;28;20274;-42
2022/11/15 03:14:51;;;;;;;;;;;6.10;92.00;;;;;;5009811;28;20335;-41
2022/11/15 03:17:26;;;;;;;;;;;6.10;92.10;;;;;;4991091;28;19905;-44
2022/11/15 03:19:58;;;;;;;;;;;6.20;92.10;;;;;;5009432;28;19913;-42
2022/11/15 03:22:26;;;;;;;;;;;6.20;92.10;;;;;;5002889;28;20379;-42
2022/11/15 03:24:55;;;;;;;;;;;6.20;92.10;;;;;;4994198;28;19905;-43
2022/11/15 03:27:24;;;;;;;;;;;6.20;92.10;;;;;;5003257;28;19925;-44
2022/11/15 03:29:53;;;;;;;;;;;6.20;92.10;;;;;;5009693;28;19953;-41
2022/11/15 03:32:23;;;;;;;;;;;6.20;92.10;;;;;;4997008;28;19914;-42
2022/11/15 03:35:07;;;;;;;;;;;6.20;92.10;;;;;;4993856;28;19933;-43
2022/11/15 03:37:53;;;;;;;;;;;6.30;92.20;;;;;;4993668;28;19916;-41
2022/11/15 03:40:24;;;;;;;;;;;6.40;92.30;;;;;;5008873;28;19913;-41
2022/11/15 03:43:14;;;;;;;;;;;6.50;92.30;;;;;;5013240;28;20769;-43
2022/11/15 03:45:47;;;;;;;;;;;6.60;92.40;;;;;;5012736;28;20307;-42
2022/11/15 03:48:20;;;;;;;;;;;6.70;92.40;;;;;;4997890;28;19913;-43
2022/11/15 03:50:47;;;;;;;;;;;6.80;92.40;;;;;;5002837;28;20393;-43
2022/11/15 03:53:14;;;;;;;;;;;6.80;92.30;;;;;;5015998;28;19948;-42
2022/11/15 03:55:41;;;;;;;;;;;6.90;92.30;;;;;;5016326;28;19917;-42
2022/11/15 03:58:07;;;;;;;;;;;6.90;92.30;;;;;;5015954;28;19920;-42
2022/11/15 04:00:34;;;;;;;;;;;7.00;92.20;;;;;;5016592;28;19953;-42
2022/11/15 04:03:03;;;;;;;;;;;7.00;92.10;;;;;;5016362;28;20297;-43
2022/11/15 04:05:29;;;;;;;;;;;7.00;92.00;;;;;;5012178;28;19914;-43
2022/11/15 04:07:55;;;;;;;;;;;7.10;92.00;;;;;;4997745;28;19921;-42
2022/11/15 04:10:22;;;;;;;;;;;7.20;92.00;;;;;;4998425;28;19913;-43
2022/11/15 04:12:52;;;;;;;;;;;7.20;91.90;;;;;;5009499;28;19936;-43
2022/11/15 04:15:22;;;;;;;;;;;7.20;91.80;;;;;;5002953;28;20390;-43
2022/11/15 04:17:50;;;;;;;;;;;7.20;91.80;;;;;;5013046;28;19905;-42
2022/11/15 04:25:52;;;;;;;;;;;7.30;91.80;;;;;;5000453;28;20379;-44
2022/11/15 04:28:19;;;;;;;;;;;7.30;91.80;;;;;;5009232;28;19916;-44
2022/11/15 04:30:48;;;;;;;;;;;7.40;91.80;;;;;;5000575;28;19911;-43
2022/11/15 04:33:15;;;;;;;;;;;7.40;91.90;;;;;;5003642;28;20020;-43
2022/11/15 04:35:41;;;;;;;;;;;7.50;91.90;;;;;;4997210;28;19910;-44
2022/11/15 04:38:09;;;;;;;;;;;7.50;92.00;;;;;;4996288;28;20231;-43
2022/11/15 04:40:39;;;;;;;;;;;7.60;92.00;;;;;;4998559;28;19914;-43
2022/11/15 04:43:08;;;;;;;;;;;7.60;92.10;;;;;;5003516;28;19910;-43
2022/11/15 04:45:35;;;;;;;;;;;7.70;92.10;;;;;;4997420;28;19932;-43
2022/11/15 04:48:02;;;;;;;;;;;7.70;92.20;;;;;;4996857;28;19910;-42
2022/11/15 04:50:29;;;;;;;;;;;7.70;92.30;;;;;;5012586;28;19941;-42
2022/11/15 04:52:55;;;;;;;;;;;7.70;92.30;;;;;;5013224;28;19913;-46
2022/11/15 04:55:22;;;;;;;;;;;7.80;92.50;;;;;;4999808;28;19909;-43
2022/11/15 04:57:57;;;;;;;;;;;7.70;92.50;;;;;;5014162;28;19916;-43
2022/11/15 05:00:24;;;;;;;;;;;7.80;92.70;;;;;;5014886;28;19955;-43
2022/11/15 05:05:35;;;;;;;;;;;7.80;93.00;;;;;;5015851;28;20333;-42
2022/11/15 05:08:02;;;;;;;;;;;7.90;93.10;;;;;;5016251;28;19941;-43
2022/11/15 05:10:28;;;;;;;;;;;7.90;93.20;;;;;;5015154;28;19905;-42
2022/11/15 05:12:55;;;;;;;;;;;7.90;93.30;;;;;;5004430;28;19909;-43
2022/11/15 05:15:22;;;;;;;;;;;7.90;93.40;;;;;;5011930;28;19910;-43
2022/11/15 05:17:48;;;;;;;;;;;7.90;93.50;;;;;;4996522;28;19906;-43
2022/11/15 05:20:15;;;;;;;;;;;7.90;93.50;;;;;;4995913;28;20020;-41
2022/11/15 05:22:42;;;;;;;;;;;7.90;93.50;;;;;;5013648;28;19909;-42
2022/11/15 05:25:09;;;;;;;;;;;7.90;93.60;;;;;;5015853;28;19910;-44
2022/11/15 05:27:35;;;;;;;;;;;7.90;93.70;;;;;;5013860;28;20031;-42
2022/11/15 05:30:02;;;;;;;;;;;8.00;93.70;;;;;;5010907;28;19917;-43
2022/11/15 05:32:29;;;;;;;;;;;8.00;93.70;;;;;;5011229;28;19913;-45
2022/11/15 05:34:59;;;;;;;;;;;8.00;93.70;;;;;;5015672;28;20003;-42
2022/11/15 05:37:26;;;;;;;;;;;7.90;93.70;;;;;;4996327;28;19910;-42
2022/11/15 05:39:52;;;;;;;;;;;8.00;93.70;;;;;;4996033;28;19972;-44
2022/11/15 05:42:19;;;;;;;;;;;8.00;93.70;;;;;;5009082;28;19909;-44
2022/11/15 05:44:47;;;;;;;;;;;8.10;93.70;;;;;;5003184;28;19910;-43
2022/11/15 05:47:16;;;;;;;;;;;8.20;93.80;;;;;;5011261;28;20671;-42
2022/11/15 05:49:44;;;;;;;;;;;8.20;93.70;;;;;;4995996;28;19909;-42
2022/11/15 05:52:13;;;;;;;;;;;8.20;93.70;;;;;;5007807;28;20331;-42
2022/11/15 05:54:40;;;;;;;;;;;8.20;93.70;;;;;;5010068;28;19910;-43
2022/11/15 05:57:07;;;;;;;;;;;8.30;93.70;;;;;;5005257;28;19920;-42
2022/11/15 05:59:34;;;;;;;;;;;8.40;93.70;;;;;;5001770;28;19963;-43
2022/11/15 06:02:01;;;;;;;;;;;8.40;93.60;;;;;;5006574;28;19914;-42
2022/11/15 06:04:28;;;;;;;;;;;8.50;93.50;;;;;;5015064;28;19943;-43
2022/11/15 06:06:55;;;;;;;;;;;8.50;93.40;;;;;;5004353;28;20389;-46
2022/11/15 06:09:22;;;;;;;;;;;8.50;93.30;;;;;;5010710;28;19910;-42
2022/11/15 06:11:49;;;;;;;;;;;8.60;93.30;;;;;;5003268;28;19913;-42
2022/11/15 06:14:15;;;;;;;;;;;8.60;93.20;;;;;;5014670;28;19905;-45
2022/11/15 06:16:43;;;;;;;;;;;8.70;93.20;;;;;;4996676;28;20323;-42
2022/11/15 06:19:09;;;;;;;;;;;8.70;93.10;;;;;;5009915;28;19993;-43
2022/11/15 06:21:36;;;;;;;;;;;8.70;93.00;;;;;;5001287;28;19913;-42
2022/11/15 06:24:04;;;;;;;;;;;8.70;93.00;;;;;;5014573;28;20410;-43
2022/11/15 06:26:33;;;;;;;;;;;8.70;92.90;;;;;;5013670;28;19971;-45
2022/11/15 06:29:00;;;;;;;;;;;8.70;92.90;;;;;;5009656;28;19910;-43
2022/11/15 06:31:26;;;;;;;;;;;8.80;93.00;;;;;;5000078;28;19956;-44
2022/11/15 06:33:52;;;;;;;;;;;8.80;93.00;;;;;;5014655;28;19909;-42
2022/11/15 06:36:20;;;;;;;;;;;8.90;92.90;;;;;;5014645;28;20327;-43
2022/11/15 06:38:47;;;;;;;;;;;8.90;92.80;;;;;;4995234;28;19953;-42
2022/11/15 06:41:14;;;;;;;;;;;8.80;92.80;;;;;;4996164;28;19918;-44
2022/11/15 06:43:41;;;;;;;;;;;8.90;92.80;;;;;;5006859;28;19955;-43
2022/11/15 06:46:08;;;;;;;;;;;8.80;92.80;;;;;;5011882;28;19916;-42
2022/11/15 06:48:38;;;;;;;;;;;8.90;92.90;;;;;;5011991;28;20255;-43
2022/11/15 06:51:07;;;;;;;;;;;8.90;92.80;;;;;;5027600;28;19921;-45
2022/11/15 06:53:35;;;;;;;;;;;8.90;92.80;;;;;;5011542;28;21909;-43
2022/11/15 06:56:03;;;;;;;;;;;8.90;92.80;;;;;;4998682;28;19909;-44
2022/11/15 06:58:33;;;;;;;;;;;8.90;92.90;;;;;;5008906;28;19921;-43
2022/11/15 07:01:05;;;;;;;;;;;8.90;92.80;;;;;;4994441;28;19964;-44
2022/11/15 07:03:33;;;;;;;;;;;8.90;92.80;;;;;;5012063;28;20247;-44
2022/11/15 07:06:02;;;;;;;;;;;9.00;92.90;;;;;;5002451;28;19924;-43
2022/11/15 07:08:29;;;;;;;;;;;9.00;92.90;;;;;;4994217;28;20008;-43
2022/11/15 07:11:00;;;;;;;;;;;9.00;92.90;;;;;;4994074;28;19941;-43
2022/11/15 07:13:34;;;;;;;;;;;9.10;92.90;;;;;;5009457;28;19939;-43
2022/11/15 07:16:05;;;;;;;;;;;9.10;92.80;;;;;;4994070;28;19914;-43
2022/11/15 07:18:35;;;;;;;;;;;9.10;92.70;;;;;;5009706;28;19916;-43
2022/11/15 07:21:07;;;;;;;;;;;9.10;92.70;;;;;;4993979;28;20321;-43
2022/11/15 07:23:38;;;;;;;;;;;9.20;92.70;;;;;;5011858;28;19909;-44
2022/11/15 07:26:05;;;;;;;;;;;9.20;92.70;;;;;;5013754;28;20019;-43
2022/11/15 07:28:32;;;;;;;;;;;9.20;92.70;;;;;;5011100;28;19906;-43
2022/11/15 07:31:01;;;;;;;;;;;9.20;92.70;;;;;;5012902;28;20389;-44
2022/11/15 07:33:28;;;;;;;;;;;9.30;92.70;;;;;;5011898;28;19948;-44
2022/11/15 07:35:58;;;;;;;;;;;9.40;92.60;;;;;;5012708;28;19909;-43
2022/11/15 07:38:24;;;;;;;;;;;9.40;92.50;;;;;;5006870;28;19956;-43
2022/11/15 07:41:01;;;;;;;;;;;9.40;92.40;;;;;;5013580;28;19960;-43
2022/11/15 07:43:29;;;;;;;;;;;9.40;92.40;;;;;;5011575;28;19905;-44
2022/11/15 07:45:56;;;;;;;;;;;9.40;92.40;;;;;;5003181;28;20343;-44
2022/11/15 07:48:22;;;;;;;;;;;9.40;92.30;;;;;;4994054;28;20355;-44
2022/11/15 07:50:49;;;;;;;;;;;9.50;92.20;;;;;;4993807;28;19920;-43
2022/11/15 07:53:16;;;;;;;;;;;9.50;92.20;;;;;;4993654;28;19906;-45
2022/11/15 07:55:45;;;;;;;;;;;9.50;92.10;;;;;;5010806;28;19925;-44
2022/11/15 07:58:12;;;;;;;;;;;9.50;92.10;;;;;;5012977;28;19925;-44
2022/11/15 08:00:41;;;;;;;;;;;9.50;92.10;;;;;;5010626;28;20335;-44
2022/11/15 08:03:13;;;;;;;;;;;9.50;92.00;;;;;;5013390;28;19910;-44
2022/11/15 08:05:39;;;;;;;;;;;9.50;92.10;;;;;;5013413;28;19913;-44
2022/11/15 08:08:05;;;;;;;;;;;9.50;92.10;;;;;;5008836;28;20041;-44
2022/11/15 08:10:32;;;;;;;;;;;9.50;92.00;;;;;;4993902;28;19963;-44
2022/11/15 08:13:06;;;;;;;;;;;9.50;92.00;;;;;;5013082;28;19906;-44
2022/11/15 08:15:33;;;;;;;;;;;9.60;92.00;;;;;;5008308;28;20243;-44
2022/11/15 08:18:00;;;;;;;;;;;9.60;92.00;;;;;;4993796;28;20339;-45
2022/11/15 08:20:29;;;;;;;;;;;9.60;92.00;;;;;;4993382;28;19914;-43
2022/11/15 08:22:56;;;;;;;;;;;9.60;92.00;;;;;;4997943;28;19909;-44
2022/11/15 08:25:28;;;;;;;;;;;9.70;92.00;;;;;;5013048;28;20275;-44
2022/11/15 08:27:53;;;;;;;;;;;9.70;91.90;;;;;;5012167;28;19913;-43
2022/11/15 08:30:20;;;;;;;;;;;9.70;91.80;;;;;;4996737;28;20418;-45
2022/11/15 08:32:48;;;;;;;;;;;9.80;91.70;;;;;;4994485;28;20801;-45
2022/11/15 08:35:15;;;;;;;;;;;9.80;91.70;;;;;;4996600;28;19906;-44
2022/11/15 08:37:42;;;;;;;;;;;9.90;91.70;;;;;;4997235;28;19913;-44
2022/11/15 08:40:09;;;;;;;;;;;9.90;91.70;;;;;;4997223;28;19961;-44
2022/11/15 08:42:36;;;;;;;;;;;9.90;91.60;;;;;;5005608;28;19913;-44
2022/11/15 08:45:03;;;;;;;;;;;10.00;91.50;;;;;;5015680;28;19906;-45
2022/11/15 08:47:30;;;;;;;;;;;10.10;91.40;;;;;;5013934;28;20243;-44
2022/11/15 08:49:56;;;;;;;;;;;10.10;91.30;;;;;;5001425;28;20232;-44
2022/11/15 08:52:26;;;;;;;;;;;10.10;91.10;;;;;;4996886;28;20329;-45
2022/11/15 08:54:53;;;;;;;;;;;10.10;91.00;;;;;;5011192;28;19916;-45
2022/11/15 08:57:20;;;;;;;;;;;10.20;91.10;;;;;;4994789;28;19913;-45
2022/11/15 08:59:47;;;;;;;;;;;10.20;91.00;;;;;;4995883;28;19960;-45
2022/11/15 09:02:16;;;;;;;;;;;10.20;91.00;;;;;;4996866;28;19910;-45
2022/11/15 09:04:43;;;;;;;;;;;10.30;91.00;;;;;;4995900;28;19996;-45
2022/11/15 09:07:13;;;;;;;;;;;10.30;91.00;;;;;;4996175;28;19917;-45
2022/11/15 09:09:45;;;;;;;;;;;10.40;90.90;;;;;;5009527;28;19921;-44
2022/11/15 09:12:12;;;;;;;;;;;10.40;90.90;;;;;;5007739;28;20456;-44
2022/11/15 09:14:37;;;;;;;;;;;10.40;90.90;;;;;;5005092;28;20255;-44
2022/11/15 09:17:05;;;;;;;;;;;10.40;90.90;;;;;;5011667;28;19905;-44
2022/11/15 09:19:32;;;;;;;;;;;10.40;91.00;;;;;;4996381;28;19910;-45
2022/11/15 09:21:59;;;;;;;;;;;10.50;91.00;;;;;;5013914;28;19971;-44
2022/11/15 09:24:26;;;;;;;;;;;10.50;91.10;;;;;;4999291;28;19914;-44
2022/11/15 09:26:52;;;;;;;;;;;10.60;90.90;;;;;;5003483;28;20330;-44
2022/11/15 09:29:23;;;;;;;;;;;10.70;90.80;;;;;;5015987;28;20344;-44
2022/11/15 09:31:51;;;;;;;;;;;10.70;90.60;;;;;;5015709;28;20000;-45
2022/11/15 09:34:18;;;;;;;;;;;10.70;90.60;;;;;;4999307;28;19992;-45
2022/11/15 09:36:44;;;;;;;;;;;10.80;90.50;;;;;;4999159;28;19917;-45
2022/11/15 09:39:10;;;;;;;;;;;10.80;90.50;;;;;;5015521;28;19937;-44
2022/11/15 09:41:48;;;;;;;;;;;10.80;90.50;;;;;;5000500;28;19913;-44
2022/11/15 09:44:16;;;;;;;;;;;10.80;90.60;;;;;;5015516;28;19999;-45
2022/11/15 09:46:57;;;;;;;;;;;10.80;90.60;;;;;;5013871;28;20261;-45
2022/11/15 09:49:24;;;;;;;;;;;10.90;90.60;;;;;;5004937;28;19929;-45
2022/11/15 09:51:52;;;;;;;;;;;10.90;90.60;;;;;;5015398;28;19913;-45
2022/11/15 09:54:29;;;;;;;;;;;11.00;90.60;;;;;;5014357;28;19959;-44
2022/11/15 09:57:09;;;;;;;;;;;11.00;90.60;;;;;;5012487;28;19943;-45
2022/11/15 09:59:54;;;;;;;;;;;11.00;90.40;;;;;;5014329;28;19992;-45
2022/11/15 10:02:39;;;;;;;;;;;11.20;90.50;;;;;;5015584;28;19924;-44
2022/11/15 10:05:11;;;;;;;;;;;11.20;90.50;;;;;;5015040;28;19918;-45
2022/11/15 10:07:55;;;;;;;;;;;11.20;90.30;;;;;;5012734;28;19921;-45
2022/11/15 10:10:39;;;;;;;;;;;11.20;90.20;;;;;;5015463;28;19906;-45
2022/11/15 10:13:12;;;;;;;;;;;11.40;90.20;;;;;;5013212;28;19917;-44
2022/11/15 10:15:41;;;;;;;;;;;11.40;90.10;;;;;;5009449;28;19917;-44
2022/11/15 10:18:28;;;;;;;;;;;11.40;90.00;;;;;;4995364;28;19947;-45
2022/11/15 10:20:59;;;;;;;;;;;11.50;89.80;;;;;;5010664;28;19913;-47
2022/11/15 10:23:26;;;;;;;;;;;11.60;89.60;;;;;;5010624;28;20016;-44
2022/11/15 10:25:57;;;;;;;;;;;11.60;89.50;;;;;;4995140;28;19914;-46
2022/11/15 10:28:28;;;;;;;;;;;11.60;89.70;;;;;;5006621;28;20138;-48
2022/11/15 10:30:56;;;;;;;;;;;11.70;89.80;;;;;;5014586;28;19916;-46
2022/11/15 10:33:42;;;;;;;;;;;11.70;89.70;;;;;;5012425;28;19916;-45
2022/11/15 10:36:11;;;;;;;;;;;11.80;89.70;;;;;;4995063;28;20004;-47
2022/11/15 10:39:07;;;;;;;;;;;11.80;89.50;;;;;;5008281;28;20247;-45
2022/11/15 10:41:38;;;;;;;;;;;11.90;89.60;;;;;;4997960;28;20001;-45
2022/11/15 10:44:16;;;;;;;;;;;11.90;89.50;;;;;;5009314;28;20332;-45
2022/11/15 10:46:46;;;;;;;;;;;12.00;89.40;;;;;;4994919;28;19906;-45
2022/11/15 10:49:21;;;;;;;;;;;12.10;89.40;;;;;;4997138;28;19967;-45
2022/11/15 10:52:05;;;;;;;;;;;12.10;89.30;;;;;;5014159;28;19913;-45
2022/11/15 10:54:49;;;;;;;;;;;12.20;89.20;;;;;;5003723;28;20020;-45
2022/11/15 10:57:23;;;;;;;;;;;12.20;89.10;;;;;;5013273;28;20326;-45
2022/11/15 10:59:56;;;;;;;;;;;12.30;88.90;;;;;;5008822;28;20243;-45
2022/11/15 11:02:41;;;;;;;;;;;12.40;89.00;;;;;;4994562;28;20326;-45
2022/11/15 11:05:27;;;;;;;;;;;12.40;88.80;;;;;;4994187;28;19945;-45
2022/11/15 11:08:11;;;;;;;;;;;12.40;88.70;;;;;;5004709;28;20305;-45
2022/11/15 11:10:37;;;;;;;;;;;12.40;88.60;;;;;;5014078;28;19964;-45
2022/11/15 11:13:23;;;;;;;;;;;12.40;88.40;;;;;;5013068;28;19910;-45
2022/11/15 11:16:10;;;;;;;;;;;12.40;88.50;;;;;;4993332;28;19917;-46
2022/11/15 11:18:54;;;;;;;;;;;12.40;88.60;;;;;;4995853;28;19917;-45
2022/11/15 11:21:39;;;;;;;;;;;12.30;88.60;;;;;;5012822;28;20008;-46
2022/11/15 11:24:18;;;;;;;;;;;12.40;88.70;;;;;;5005732;28;19921;-45
2022/11/15 11:27:12;;;;;;;;;;;12.40;88.90;;;;;;4995261;28;19910;-45
2022/11/15 11:29:59;;;;;;;;;;;12.40;88.80;;;;;;4988123;28;19913;-45
2022/11/15 11:32:27;;;;;;;;;;;12.40;88.70;;;;;;4993966;28;20031;-45
2022/11/15 11:35:11;;;;;;;;;;;12.40;88.80;;;;;;4994135;28;19913;-45
2022/11/15 11:37:47;;;;;;;;;;;12.30;88.60;;;;;;5011870;28;19996;-46
2022/11/15 11:40:31;;;;;;;;;;;12.40;88.70;;;;;;5012792;28;19924;-45
2022/11/15 11:43:15;;;;;;;;;;;12.30;88.70;;;;;;5008067;28;19917;-44
2022/11/15 11:45:59;;;;;;;;;;;12.40;88.80;;;;;;5012625;28;20003;-45
2022/11/15 11:48:40;;;;;;;;;;;12.30;88.80;;;;;;5010483;28;19905;-46
2022/11/15 11:51:20;;;;;;;;;;;12.40;88.70;;;;;;5013528;28;20001;-44
2022/11/15 11:53:54;;;;;;;;;;;12.40;88.60;;;;;;5012579;28;19960;-45
2022/11/15 11:56:38;;;;;;;;;;;12.40;88.60;;;;;;5008233;28;19918;-45
2022/11/15 11:59:31;;;;;;;;;;;12.40;88.70;;;;;;5009771;28;20004;-47
2022/11/15 12:02:04;;;;;;;;;;;12.50;88.60;;;;;;4997406;28;19909;-45
2022/11/15 12:04:36;;;;;;;;;;;12.50;88.70;;;;;;5003754;28;19918;-46
2022/11/15 12:07:21;;;;;;;;;;;12.40;88.70;;;;;;4993267;28;20282;-47
2022/11/15 12:09:59;;;;;;;;;;;12.50;88.70;;;;;;5013809;28;19914;-46
2022/11/15 12:12:43;;;;;;;;;;;12.50;88.70;;;;;;5009911;28;19999;-46
2022/11/15 12:15:27;;;;;;;;;;;12.50;88.70;;;;;;5016632;28;19910;-46
2022/11/15 12:17:55;;;;;;;;;;;12.50;88.80;;;;;;5011921;28;19905;-45
2022/11/15 12:20:27;;;;;;;;;;;12.60;88.90;;;;;;5014460;28;20014;-45
2022/11/15 12:23:02;;;;;;;;;;;12.60;88.90;;;;;;5009341;28;19906;-45
2022/11/15 12:25:33;;;;;;;;;;;12.60;89.10;;;;;;4997196;28;19910;-45
2022/11/15 12:28:06;;;;;;;;;;;12.70;89.00;;;;;;5000915;28;19906;-45
2022/11/15 12:31:06;;;;;;;;;;;12.70;88.70;;;;;;5016641;28;19909;-48
2022/11/15 12:33:50;;;;;;;;;;;12.80;88.70;;;;;;4983956;28;20358;-45
2022/11/15 12:36:34;;;;;;;;;;;12.90;88.50;;;;;;5011966;28;19916;-47
2022/11/15 12:39:04;;;;;;;;;;;13.00;88.30;;;;;;5008842;28;19921;-47
2022/11/15 12:41:35;;;;;;;;;;;13.10;88.00;;;;;;5015546;28;20078;-45
2022/11/15 12:44:04;;;;;;;;;;;13.20;88.00;;;;;;5015679;28;19941;-46
2022/11/15 12:46:33;;;;;;;;;;;13.30;87.80;;;;;;5004701;28;20451;-47
2022/11/15 12:49:19;;;;;;;;;;;13.40;87.50;;;;;;4997101;28;20437;-45
2022/11/15 12:51:52;;;;;;;;;;;13.40;87.30;;;;;;5014725;28;20302;-46
2022/11/15 12:54:29;;;;;;;;;;;13.30;87.10;;;;;;5016252;28;19911;-45
2022/11/15 12:57:06;;;;;;;;;;;13.30;87.00;;;;;;4998072;28;19960;-46
2022/11/15 12:59:54;;;;;;;;;;;13.20;87.20;;;;;;5013423;28;20274;-45
2022/11/15 13:02:25;;;;;;;;;;;13.10;87.60;;;;;;5015597;28;19913;-45
2022/11/15 13:04:54;;;;;;;;;;;13.00;87.50;;;;;;4996622;28;20370;-47
2022/11/15 13:07:50;;;;;;;;;;;12.90;87.50;;;;;;5004758;28;20411;-46
2022/11/15 13:10:18;;;;;;;;;;;12.90;87.70;;;;;;5006612;28;20354;-45
2022/11/15 13:12:46;;;;;;;;;;;12.90;87.70;;;;;;5006472;28;20396;-47
2022/11/15 13:15:21;;;;;;;;;;;12.90;87.80;;;;;;5012359;28;19910;-46
2022/11/15 13:17:48;;;;;;;;;;;12.80;87.90;;;;;;5015158;28;19963;-46
2022/11/15 13:20:16;;;;;;;;;;;12.80;88.10;;;;;;5004840;28;19924;-49
2022/11/15 13:22:51;;;;;;;;;;;12.90;88.20;;;;;;5011862;28;19952;-46
2022/11/15 13:25:19;;;;;;;;;;;12.90;88.30;;;;;;5012222;28;19920;-45
2022/11/15 13:27:48;;;;;;;;;;;12.90;88.20;;;;;;5015969;28;20231;-45
2022/11/15 13:30:25;;;;;;;;;;;12.90;88.20;;;;;;5014723;28;19913;-46
2022/11/15 13:32:57;;;;;;;;;;;12.90;88.20;;;;;;5003014;28;19909;-46
2022/11/15 13:35:27;;;;;;;;;;;13.00;88.30;;;;;;5014061;28;19909;-45
2022/11/15 13:37:55;;;;;;;;;;;13.00;88.20;;;;;;5015625;28;20339;-46
2022/11/15 13:40:40;;;;;;;;;;;13.10;88.20;;;;;;5014631;28;19949;-45
2022/11/15 13:43:28;;;;;;;;;;;13.10;87.80;;;;;;5000180;28;19917;-50
2022/11/15 13:46:15;;;;;;;;;;;13.10;87.60;;;;;;5008678;28;19914;-46
2022/11/15 13:48:41;;;;;;;;;;;13.10;87.50;;;;;;4995354;28;19967;-46
2022/11/15 13:51:33;;;;;;;;;;;12.90;87.60;;;;;;4995740;28;20347;-46
2022/11/15 13:54:02;;;;;;;;;;;12.90;87.80;;;;;;4993661;28;19917;-45
2022/11/15 13:56:30;;;;;;;;;;;12.90;88.00;;;;;;4995909;28;19906;-45
2022/11/15 13:58:56;;;;;;;;;;;12.90;88.20;;;;;;4995289;28;19914;-46
2022/11/15 14:01:27;;;;;;;;;;;12.90;88.30;;;;;;5015009;28;19924;-47
2022/11/15 14:03:59;;;;;;;;;;;12.90;88.10;;;;;;4998564;28;19914;-45
2022/11/15 14:06:27;;;;;;;;;;;12.90;88.10;;;;;;5003011;28;19921;-45
2022/11/15 14:09:11;;;;;;;;;;;12.90;88.00;;;;;;5014180;28;19909;-46
2022/11/15 14:11:37;;;;;;;;;;;12.80;88.00;;;;;;4998725;28;19909;-46
2022/11/15 14:14:13;;;;;;;;;;;12.70;88.10;;;;;;4995481;28;19909;-48
2022/11/15 14:16:41;;;;;;;;;;;12.70;88.30;;;;;;5013349;28;19914;-45
2022/11/15 14:19:13;;;;;;;;;;;12.60;88.40;;;;;;5011233;28;19905;-45
2022/11/15 14:22:01;;;;;;;;;;;12.60;88.40;;;;;;4995331;28;19922;-45
2022/11/15 14:24:30;;;;;;;;;;;12.50;88.30;;;;;;4991021;28;19914;-45
2022/11/15 14:26:59;;;;;;;;;;;12.50;88.50;;;;;;5008028;28;19917;-45
2022/11/15 14:29:26;;;;;;;;;;;12.40;88.40;;;;;;5010332;28;19906;-46
2022/11/15 14:31:53;;;;;;;;;;;12.40;88.80;;;;;;4996566;28;19910;-45
2022/11/15 14:34:22;;;;;;;;;;;12.30;88.90;;;;;;4993985;28;19909;-46
2022/11/15 14:36:48;;;;;;;;;;;12.20;89.00;;;;;;5007865;28;19917;-45
2022/11/15 14:39:15;;;;;;;;;;;12.20;89.10;;;;;;5014313;28;19913;-45
2022/11/15 14:41:42;;;;;;;;;;;12.10;89.00;;;;;;5006740;28;20291;-46
2022/11/15 14:44:10;;;;;;;;;;;12.00;89.10;;;;;;4994840;28;19934;-45
2022/11/15 14:46:36;;;;;;;;;;;11.90;89.40;;;;;;5010541;28;19905;-45
2022/11/15 14:49:02;;;;;;;;;;;11.90;89.60;;;;;;4996543;28;19910;-45
2022/11/15 14:51:29;;;;;;;;;;;11.90;89.90;;;;;;5008806;28;19913;-45
2022/11/15 14:53:56;;;;;;;;;;;11.80;89.90;;;;;;5013134;28;19913;-45
2022/11/15 14:56:22;;;;;;;;;;;11.70;89.80;;;;;;5006005;28;19906;-46
2022/11/15 14:58:49;;;;;;;;;;;11.60;89.80;;;;;;4994604;28;19916;-46